sensor_id;sensor_type;location;lat;lon;timestamp;P1;durP1;ratioP1;P2;durP2;ratioP2
59770;SDS011;45649;53.014;6.600;2023-04-03T00:01:05;1.67;;;1.50;;
59770;SDS011;45649;53.014;6.600;2023-04-03T00:03:31;2.80;;;1.40;;
59770;SDS011;45649;53.014;6.600;2023-04-03T00:05:58;2.30;;;1.40;;
59770;SDS011;45649;53.014;6.600;2023-04-03T00:08:24;1.37;;;1.10;;
59770;SDS011;45649;53.014;6.600;2023-04-03T00:10:50;1.50;;;1.40;;
59770;SDS011;45649;53.014;6.600;2023-04-03T00:13:16;1.70;;;1.43;;
59770;SDS011;45649;53.014;6.600;2023-04-03T00:15:43;1.83;;;1.40;;
59770;SDS011;45649;53.014;6.600;2023-04-03T00:18:09;1.73;;;1.50;;
59770;SDS011;45649;53.014;6.600;2023-04-03T00:20:35;1.93;;;1.47;;
59770;SDS011;45649;53.014;6.600;2023-04-03T00:23:01;2.07;;;1.30;;
59770;SDS011;45649;53.014;6.600;2023-04-03T00:25:27;2.20;;;1.33;;
59770;SDS011;45649;53.014;6.600;2023-04-03T00:27:54;2.30;;;1.50;;
59770;SDS011;45649;53.014;6.600;2023-04-03T00:30:20;1.63;;;1.20;;
59770;SDS011;45649;53.014;6.600;2023-04-03T00:32:47;1.73;;;1.37;;
59770;SDS011;45649;53.014;6.600;2023-04-03T00:35:13;1.80;;;1.20;;
59770;SDS011;45649;53.014;6.600;2023-04-03T00:37:43;1.53;;;1.43;;
59770;SDS011;45649;53.014;6.600;2023-04-03T00:40:09;1.40;;;1.30;;
59770;SDS011;45649;53.014;6.600;2023-04-03T00:42:36;2.37;;;1.40;;
59770;SDS011;45649;53.014;6.600;2023-04-03T00:47:29;1.70;;;1.60;;
59770;SDS011;45649;53.014;6.600;2023-04-03T00:49:56;2.97;;;1.60;;
59770;SDS011;45649;53.014;6.600;2023-04-03T00:52:23;1.50;;;1.40;;
59770;SDS011;45649;53.014;6.600;2023-04-03T00:54:51;1.60;;;1.50;;
59770;SDS011;45649;53.014;6.600;2023-04-03T00:57:18;2.13;;;1.43;;
59770;SDS011;45649;53.014;6.600;2023-04-03T00:59:46;2.83;;;1.50;;
59770;SDS011;45649;53.014;6.600;2023-04-03T01:02:13;2.77;;;1.80;;
59770;SDS011;45649;53.014;6.600;2023-04-03T01:04:40;1.87;;;1.40;;
59770;SDS011;45649;53.014;6.600;2023-04-03T01:07:08;3.13;;;2.00;;
59770;SDS011;45649;53.014;6.600;2023-04-03T01:09:35;1.70;;;1.60;;
59770;SDS011;45649;53.014;6.600;2023-04-03T01:12:15;2.17;;;1.50;;
59770;SDS011;45649;53.014;6.600;2023-04-03T01:14:42;2.67;;;1.70;;
59770;SDS011;45649;53.014;6.600;2023-04-03T01:22:33;2.63;;;1.57;;
59770;SDS011;45649;53.014;6.600;2023-04-03T01:25:01;2.23;;;1.87;;
59770;SDS011;45649;53.014;6.600;2023-04-03T01:27:27;2.13;;;1.60;;
59770;SDS011;45649;53.014;6.600;2023-04-03T01:29:53;2.27;;;1.73;;
59770;SDS011;45649;53.014;6.600;2023-04-03T01:32:19;3.17;;;2.23;;
59770;SDS011;45649;53.014;6.600;2023-04-03T01:34:45;4.60;;;1.90;;
59770;SDS011;45649;53.014;6.600;2023-04-03T01:37:11;4.00;;;1.93;;
59770;SDS011;45649;53.014;6.600;2023-04-03T01:39:37;2.67;;;1.80;;
59770;SDS011;45649;53.014;6.600;2023-04-03T01:42:03;4.33;;;1.93;;
59770;SDS011;45649;53.014;6.600;2023-04-03T01:44:30;2.20;;;1.90;;
59770;SDS011;45649;53.014;6.600;2023-04-03T01:46:56;2.53;;;1.97;;
59770;SDS011;45649;53.014;6.600;2023-04-03T01:49:22;3.47;;;1.77;;
59770;SDS011;45649;53.014;6.600;2023-04-03T01:51:48;1.97;;;1.83;;
59770;SDS011;45649;53.014;6.600;2023-04-03T01:54:14;5.60;;;1.80;;
59770;SDS011;45649;53.014;6.600;2023-04-03T01:56:40;3.10;;;1.90;;
59770;SDS011;45649;53.014;6.600;2023-04-03T01:59:07;2.17;;;1.80;;
59770;SDS011;45649;53.014;6.600;2023-04-03T02:01:33;2.13;;;1.80;;
59770;SDS011;45649;53.014;6.600;2023-04-03T02:03:59;4.10;;;2.00;;
59770;SDS011;45649;53.014;6.600;2023-04-03T02:06:25;2.37;;;1.70;;
59770;SDS011;45649;53.014;6.600;2023-04-03T02:08:51;3.33;;;1.90;;
59770;SDS011;45649;53.014;6.600;2023-04-03T02:11:18;3.07;;;2.00;;
59770;SDS011;45649;53.014;6.600;2023-04-03T02:13:45;3.43;;;1.77;;
59770;SDS011;45649;53.014;6.600;2023-04-03T02:16:11;2.47;;;2.13;;
59770;SDS011;45649;53.014;6.600;2023-04-03T02:18:38;3.03;;;2.20;;
59770;SDS011;45649;53.014;6.600;2023-04-03T02:21:04;2.10;;;1.90;;
59770;SDS011;45649;53.014;6.600;2023-04-03T02:23:30;2.33;;;1.90;;
59770;SDS011;45649;53.014;6.600;2023-04-03T02:26:03;3.07;;;2.03;;
59770;SDS011;45649;53.014;6.600;2023-04-03T02:28:30;2.50;;;2.00;;
59770;SDS011;45649;53.014;6.600;2023-04-03T02:30:56;2.43;;;1.90;;
59770;SDS011;45649;53.014;6.600;2023-04-03T02:33:22;3.93;;;2.10;;
59770;SDS011;45649;53.014;6.600;2023-04-03T02:35:52;3.07;;;1.93;;
59770;SDS011;45649;53.014;6.600;2023-04-03T02:38:18;3.33;;;2.00;;
59770;SDS011;45649;53.014;6.600;2023-04-03T02:40:44;2.40;;;1.93;;
59770;SDS011;45649;53.014;6.600;2023-04-03T02:43:10;4.23;;;2.10;;
59770;SDS011;45649;53.014;6.600;2023-04-03T02:45:36;3.30;;;1.90;;
59770;SDS011;45649;53.014;6.600;2023-04-03T02:48:02;2.20;;;1.90;;
59770;SDS011;45649;53.014;6.600;2023-04-03T02:50:29;4.30;;;2.10;;
59770;SDS011;45649;53.014;6.600;2023-04-03T02:52:55;3.30;;;2.03;;
59770;SDS011;45649;53.014;6.600;2023-04-03T02:55:21;3.27;;;2.27;;
59770;SDS011;45649;53.014;6.600;2023-04-03T02:57:47;3.10;;;1.90;;
59770;SDS011;45649;53.014;6.600;2023-04-03T03:00:16;3.30;;;1.90;;
59770;SDS011;45649;53.014;6.600;2023-04-03T03:02:42;2.40;;;1.90;;
59770;SDS011;45649;53.014;6.600;2023-04-03T03:05:08;2.90;;;2.03;;
59770;SDS011;45649;53.014;6.600;2023-04-03T03:07:35;2.83;;;2.00;;
59770;SDS011;45649;53.014;6.600;2023-04-03T03:10:01;4.40;;;2.10;;
59770;SDS011;45649;53.014;6.600;2023-04-03T03:12:27;2.13;;;1.80;;
59770;SDS011;45649;53.014;6.600;2023-04-03T03:14:53;2.83;;;2.10;;
59770;SDS011;45649;53.014;6.600;2023-04-03T03:17:19;2.40;;;2.10;;
59770;SDS011;45649;53.014;6.600;2023-04-03T03:19:45;2.93;;;1.80;;
59770;SDS011;45649;53.014;6.600;2023-04-03T03:22:12;3.03;;;1.97;;
59770;SDS011;45649;53.014;6.600;2023-04-03T03:24:38;2.23;;;2.03;;
59770;SDS011;45649;53.014;6.600;2023-04-03T03:27:04;3.33;;;2.07;;
59770;SDS011;45649;53.014;6.600;2023-04-03T03:29:30;3.30;;;2.30;;
59770;SDS011;45649;53.014;6.600;2023-04-03T03:31:56;2.40;;;2.03;;
59770;SDS011;45649;53.014;6.600;2023-04-03T03:34:22;2.40;;;1.90;;
59770;SDS011;45649;53.014;6.600;2023-04-03T03:36:48;2.30;;;1.97;;
59770;SDS011;45649;53.014;6.600;2023-04-03T03:39:14;2.67;;;1.97;;
59770;SDS011;45649;53.014;6.600;2023-04-03T03:41:41;4.50;;;2.33;;
59770;SDS011;45649;53.014;6.600;2023-04-03T03:44:07;4.60;;;2.40;;
59770;SDS011;45649;53.014;6.600;2023-04-03T03:46:33;3.73;;;2.23;;
59770;SDS011;45649;53.014;6.600;2023-04-03T03:48:59;2.53;;;2.20;;
59770;SDS011;45649;53.014;6.600;2023-04-03T03:51:25;3.60;;;2.30;;
59770;SDS011;45649;53.014;6.600;2023-04-03T03:53:51;2.97;;;2.10;;
59770;SDS011;45649;53.014;6.600;2023-04-03T03:56:17;3.07;;;2.20;;
59770;SDS011;45649;53.014;6.600;2023-04-03T03:58:44;4.43;;;2.67;;
59770;SDS011;45649;53.014;6.600;2023-04-03T04:01:10;3.90;;;2.30;;
59770;SDS011;45649;53.014;6.600;2023-04-03T04:03:36;3.17;;;2.50;;
59770;SDS011;45649;53.014;6.600;2023-04-03T04:06:02;4.27;;;2.63;;
59770;SDS011;45649;53.014;6.600;2023-04-03T04:08:28;4.37;;;2.50;;
59770;SDS011;45649;53.014;6.600;2023-04-03T04:10:55;4.57;;;3.00;;
59770;SDS011;45649;53.014;6.600;2023-04-03T04:13:21;4.00;;;2.63;;
59770;SDS011;45649;53.014;6.600;2023-04-03T04:15:47;5.57;;;2.80;;
59770;SDS011;45649;53.014;6.600;2023-04-03T04:18:13;5.13;;;2.60;;
59770;SDS011;45649;53.014;6.600;2023-04-03T04:20:39;3.57;;;2.60;;
59770;SDS011;45649;53.014;6.600;2023-04-03T04:23:05;5.57;;;2.90;;
59770;SDS011;45649;53.014;6.600;2023-04-03T04:25:31;4.53;;;2.80;;
59770;SDS011;45649;53.014;6.600;2023-04-03T04:27:57;4.77;;;3.10;;
59770;SDS011;45649;53.014;6.600;2023-04-03T04:30:24;3.30;;;2.43;;
59770;SDS011;45649;53.014;6.600;2023-04-03T04:32:50;6.43;;;3.00;;
59770;SDS011;45649;53.014;6.600;2023-04-03T04:35:16;2.93;;;2.50;;
59770;SDS011;45649;53.014;6.600;2023-04-03T04:37:42;8.20;;;2.87;;
59770;SDS011;45649;53.014;6.600;2023-04-03T04:40:08;4.50;;;2.80;;
59770;SDS011;45649;53.014;6.600;2023-04-03T04:42:35;5.03;;;3.20;;
59770;SDS011;45649;53.014;6.600;2023-04-03T04:45:01;4.43;;;2.83;;
59770;SDS011;45649;53.014;6.600;2023-04-03T04:47:28;4.70;;;2.73;;
59770;SDS011;45649;53.014;6.600;2023-04-03T04:49:54;3.43;;;2.70;;
59770;SDS011;45649;53.014;6.600;2023-04-03T04:52:20;7.10;;;3.37;;
59770;SDS011;45649;53.014;6.600;2023-04-03T04:54:46;5.87;;;3.17;;
59770;SDS011;45649;53.014;6.600;2023-04-03T04:57:13;8.77;;;2.70;;
59770;SDS011;45649;53.014;6.600;2023-04-03T04:59:39;5.13;;;3.30;;
59770;SDS011;45649;53.014;6.600;2023-04-03T05:02:05;4.33;;;3.00;;
59770;SDS011;45649;53.014;6.600;2023-04-03T05:04:31;5.67;;;2.87;;
59770;SDS011;45649;53.014;6.600;2023-04-03T05:06:58;4.93;;;3.23;;
59770;SDS011;45649;53.014;6.600;2023-04-03T05:09:24;3.97;;;2.80;;
59770;SDS011;45649;53.014;6.600;2023-04-03T05:11:50;6.40;;;3.20;;
59770;SDS011;45649;53.014;6.600;2023-04-03T05:14:16;4.03;;;2.80;;
59770;SDS011;45649;53.014;6.600;2023-04-03T05:16:43;4.40;;;2.70;;
59770;SDS011;45649;53.014;6.600;2023-04-03T05:19:09;5.77;;;3.30;;
59770;SDS011;45649;53.014;6.600;2023-04-03T05:21:35;5.03;;;2.80;;
59770;SDS011;45649;53.014;6.600;2023-04-03T05:24:02;3.90;;;2.73;;
59770;SDS011;45649;53.014;6.600;2023-04-03T05:26:29;3.93;;;3.00;;
59770;SDS011;45649;53.014;6.600;2023-04-03T05:28:55;3.20;;;2.70;;
59770;SDS011;45649;53.014;6.600;2023-04-03T05:31:21;4.27;;;2.80;;
59770;SDS011;45649;53.014;6.600;2023-04-03T05:33:47;5.40;;;3.10;;
59770;SDS011;45649;53.014;6.600;2023-04-03T05:36:14;4.70;;;2.90;;
59770;SDS011;45649;53.014;6.600;2023-04-03T05:38:40;5.57;;;3.00;;
59770;SDS011;45649;53.014;6.600;2023-04-03T05:41:06;4.33;;;2.87;;
59770;SDS011;45649;53.014;6.600;2023-04-03T05:43:32;5.17;;;2.70;;
59770;SDS011;45649;53.014;6.600;2023-04-03T05:45:59;3.63;;;2.80;;
59770;SDS011;45649;53.014;6.600;2023-04-03T05:48:25;3.10;;;2.43;;
59770;SDS011;45649;53.014;6.600;2023-04-03T05:50:51;4.70;;;3.30;;
59770;SDS011;45649;53.014;6.600;2023-04-03T05:53:19;5.37;;;3.50;;
59770;SDS011;45649;53.014;6.600;2023-04-03T05:55:47;7.13;;;3.20;;
59770;SDS011;45649;53.014;6.600;2023-04-03T05:58:13;4.47;;;3.07;;
59770;SDS011;45649;53.014;6.600;2023-04-03T06:00:39;5.33;;;3.63;;
59770;SDS011;45649;53.014;6.600;2023-04-03T06:03:05;4.73;;;3.07;;
59770;SDS011;45649;53.014;6.600;2023-04-03T06:05:32;6.27;;;3.67;;
59770;SDS011;45649;53.014;6.600;2023-04-03T06:07:58;4.37;;;3.60;;
59770;SDS011;45649;53.014;6.600;2023-04-03T06:10:24;7.93;;;4.50;;
59770;SDS011;45649;53.014;6.600;2023-04-03T06:12:50;4.57;;;3.53;;
59770;SDS011;45649;53.014;6.600;2023-04-03T06:15:16;5.63;;;3.67;;
59770;SDS011;45649;53.014;6.600;2023-04-03T06:17:43;6.53;;;3.90;;
59770;SDS011;45649;53.014;6.600;2023-04-03T06:20:09;8.40;;;3.87;;
59770;SDS011;45649;53.014;6.600;2023-04-03T06:22:35;9.43;;;3.70;;
59770;SDS011;45649;53.014;6.600;2023-04-03T06:25:01;7.47;;;3.70;;
59770;SDS011;45649;53.014;6.600;2023-04-03T06:27:27;4.80;;;3.50;;
59770;SDS011;45649;53.014;6.600;2023-04-03T06:29:54;4.97;;;3.60;;
59770;SDS011;45649;53.014;6.600;2023-04-03T06:32:20;6.63;;;3.70;;
59770;SDS011;45649;53.014;6.600;2023-04-03T06:34:46;6.53;;;3.63;;
59770;SDS011;45649;53.014;6.600;2023-04-03T06:37:16;5.20;;;3.40;;
59770;SDS011;45649;53.014;6.600;2023-04-03T06:39:43;3.47;;;3.13;;
59770;SDS011;45649;53.014;6.600;2023-04-03T06:42:10;6.00;;;3.10;;
59770;SDS011;45649;53.014;6.600;2023-04-03T06:44:36;4.33;;;3.60;;
59770;SDS011;45649;53.014;6.600;2023-04-03T06:47:02;5.73;;;3.53;;
59770;SDS011;45649;53.014;6.600;2023-04-03T06:49:28;4.70;;;3.60;;
59770;SDS011;45649;53.014;6.600;2023-04-03T06:51:57;4.13;;;3.40;;
59770;SDS011;45649;53.014;6.600;2023-04-03T06:54:23;9.53;;;3.63;;
59770;SDS011;45649;53.014;6.600;2023-04-03T06:56:50;5.93;;;3.40;;
59770;SDS011;45649;53.014;6.600;2023-04-03T06:59:16;6.57;;;3.30;;
59770;SDS011;45649;53.014;6.600;2023-04-03T07:01:43;6.53;;;3.53;;
59770;SDS011;45649;53.014;6.600;2023-04-03T07:04:09;4.93;;;3.13;;
59770;SDS011;45649;53.014;6.600;2023-04-03T07:06:35;6.77;;;3.30;;
59770;SDS011;45649;53.014;6.600;2023-04-03T07:09:01;5.13;;;3.23;;
59770;SDS011;45649;53.014;6.600;2023-04-03T07:11:27;8.23;;;3.40;;
59770;SDS011;45649;53.014;6.600;2023-04-03T07:13:54;6.43;;;3.30;;
59770;SDS011;45649;53.014;6.600;2023-04-03T07:16:21;5.00;;;3.53;;
59770;SDS011;45649;53.014;6.600;2023-04-03T07:18:47;7.67;;;3.80;;
59770;SDS011;45649;53.014;6.600;2023-04-03T07:21:13;5.43;;;3.30;;
59770;SDS011;45649;53.014;6.600;2023-04-03T07:23:40;6.33;;;3.10;;
59770;SDS011;45649;53.014;6.600;2023-04-03T07:26:06;4.03;;;3.20;;
59770;SDS011;45649;53.014;6.600;2023-04-03T07:28:33;4.43;;;3.03;;
59770;SDS011;45649;53.014;6.600;2023-04-03T07:31:00;3.33;;;3.03;;
59770;SDS011;45649;53.014;6.600;2023-04-03T07:33:26;5.10;;;2.83;;
59770;SDS011;45649;53.014;6.600;2023-04-03T07:35:52;5.57;;;3.00;;
59770;SDS011;45649;53.014;6.600;2023-04-03T07:38:18;6.03;;;3.00;;
59770;SDS011;45649;53.014;6.600;2023-04-03T07:40:48;5.57;;;3.17;;
59770;SDS011;45649;53.014;6.600;2023-04-03T07:43:17;5.17;;;2.73;;
59770;SDS011;45649;53.014;6.600;2023-04-03T07:45:43;3.53;;;2.63;;
59770;SDS011;45649;53.014;6.600;2023-04-03T07:48:10;6.50;;;2.87;;
59770;SDS011;45649;53.014;6.600;2023-04-03T07:50:37;7.13;;;3.00;;
59770;SDS011;45649;53.014;6.600;2023-04-03T07:53:03;4.83;;;2.70;;
59770;SDS011;45649;53.014;6.600;2023-04-03T07:55:29;5.63;;;2.80;;
59770;SDS011;45649;53.014;6.600;2023-04-03T07:57:57;6.00;;;3.40;;
59770;SDS011;45649;53.014;6.600;2023-04-03T08:00:23;5.63;;;2.57;;
59770;SDS011;45649;53.014;6.600;2023-04-03T08:02:49;3.70;;;2.53;;
59770;SDS011;45649;53.014;6.600;2023-04-03T08:05:17;5.00;;;3.00;;
59770;SDS011;45649;53.014;6.600;2023-04-03T08:07:43;3.43;;;2.50;;
59770;SDS011;45649;53.014;6.600;2023-04-03T08:10:10;4.03;;;2.43;;
59770;SDS011;45649;53.014;6.600;2023-04-03T08:12:36;4.97;;;2.50;;
59770;SDS011;45649;53.014;6.600;2023-04-03T08:15:02;6.53;;;2.47;;
59770;SDS011;45649;53.014;6.600;2023-04-03T08:17:29;3.73;;;2.20;;
59770;SDS011;45649;53.014;6.600;2023-04-03T08:19:55;4.60;;;2.03;;
59770;SDS011;45649;53.014;6.600;2023-04-03T08:22:21;3.57;;;2.27;;
59770;SDS011;45649;53.014;6.600;2023-04-03T08:24:47;3.50;;;2.10;;
59770;SDS011;45649;53.014;6.600;2023-04-03T08:27:13;4.83;;;2.20;;
59770;SDS011;45649;53.014;6.600;2023-04-03T08:29:40;3.30;;;2.10;;
59770;SDS011;45649;53.014;6.600;2023-04-03T08:32:06;3.53;;;2.43;;
59770;SDS011;45649;53.014;6.600;2023-04-03T08:34:32;3.20;;;2.07;;
59770;SDS011;45649;53.014;6.600;2023-04-03T08:37:00;2.47;;;1.93;;
59770;SDS011;45649;53.014;6.600;2023-04-03T08:39:26;4.67;;;2.07;;
59770;SDS011;45649;53.014;6.600;2023-04-03T08:41:52;4.33;;;1.97;;
59770;SDS011;45649;53.014;6.600;2023-04-03T08:49:46;3.20;;;2.00;;
59770;SDS011;45649;53.014;6.600;2023-04-03T08:55:01;2.30;;;2.10;;
59770;SDS011;45649;53.014;6.600;2023-04-03T08:57:36;4.33;;;2.00;;
59770;SDS011;45649;53.014;6.600;2023-04-03T09:00:16;3.90;;;1.70;;
59770;SDS011;45649;53.014;6.600;2023-04-03T09:02:44;2.33;;;1.70;;
59770;SDS011;45649;53.014;6.600;2023-04-03T09:05:16;3.00;;;1.87;;
59770;SDS011;45649;53.014;6.600;2023-04-03T09:07:44;3.13;;;1.87;;
59770;SDS011;45649;53.014;6.600;2023-04-03T09:10:12;3.53;;;1.80;;
59770;SDS011;45649;53.014;6.600;2023-04-03T09:12:46;3.80;;;1.80;;
59770;SDS011;45649;53.014;6.600;2023-04-03T09:15:23;3.27;;;1.60;;
59770;SDS011;45649;53.014;6.600;2023-04-03T09:18:05;1.93;;;1.70;;
59770;SDS011;45649;53.014;6.600;2023-04-03T09:25:48;2.77;;;1.77;;
59770;SDS011;45649;53.014;6.600;2023-04-03T09:28:15;2.30;;;1.40;;
59770;SDS011;45649;53.014;6.600;2023-04-03T09:30:41;2.00;;;1.80;;
59770;SDS011;45649;53.014;6.600;2023-04-03T09:33:07;2.10;;;1.60;;
59770;SDS011;45649;53.014;6.600;2023-04-03T09:35:35;2.30;;;1.60;;
59770;SDS011;45649;53.014;6.600;2023-04-03T09:40:29;2.60;;;1.63;;
59770;SDS011;45649;53.014;6.600;2023-04-03T09:42:57;1.80;;;1.60;;
59770;SDS011;45649;53.014;6.600;2023-04-03T09:45:31;2.20;;;1.47;;
59770;SDS011;45649;53.014;6.600;2023-04-03T09:48:05;1.50;;;1.40;;
59770;SDS011;45649;53.014;6.600;2023-04-03T09:50:32;2.13;;;1.60;;
59770;SDS011;45649;53.014;6.600;2023-04-03T09:52:59;2.43;;;1.40;;
59770;SDS011;45649;53.014;6.600;2023-04-03T09:55:30;2.27;;;1.37;;
59770;SDS011;45649;53.014;6.600;2023-04-03T09:58:03;4.07;;;1.60;;
59770;SDS011;45649;53.014;6.600;2023-04-03T10:00:30;1.90;;;1.47;;
59770;SDS011;45649;53.014;6.600;2023-04-03T10:02:58;2.23;;;1.30;;
59770;SDS011;45649;53.014;6.600;2023-04-03T10:13:12;1.57;;;1.20;;
59770;SDS011;45649;53.014;6.600;2023-04-03T10:15:43;1.27;;;1.17;;
59770;SDS011;45649;53.014;6.600;2023-04-03T10:18:16;2.50;;;1.43;;
59770;SDS011;45649;53.014;6.600;2023-04-03T10:20:51;1.37;;;1.27;;
59770;SDS011;45649;53.014;6.600;2023-04-03T10:23:20;1.77;;;1.20;;
59770;SDS011;45649;53.014;6.600;2023-04-03T10:41:57;2.53;;;1.20;;
59770;SDS011;45649;53.014;6.600;2023-04-03T10:43:59;1.63;;;1.20;;
59770;SDS011;45649;53.014;6.600;2023-04-03T10:46:28;1.80;;;1.10;;
59770;SDS011;45649;53.014;6.600;2023-04-03T10:51:38;1.60;;;1.20;;
59770;SDS011;45649;53.014;6.600;2023-04-03T10:54:26;1.40;;;1.30;;
59770;SDS011;45649;53.014;6.600;2023-04-03T10:57:03;1.50;;;1.00;;
59770;SDS011;45649;53.014;6.600;2023-04-03T10:59:32;3.03;;;1.63;;
59770;SDS011;45649;53.014;6.600;2023-04-03T11:02:04;1.40;;;1.23;;
59770;SDS011;45649;53.014;6.600;2023-04-03T11:04:33;2.27;;;1.20;;
59770;SDS011;45649;53.014;6.600;2023-04-03T11:07:22;3.07;;;1.50;;
59770;SDS011;45649;53.014;6.600;2023-04-03T11:09:48;1.60;;;1.20;;
59770;SDS011;45649;53.014;6.600;2023-04-03T11:12:18;1.40;;;1.30;;
59770;SDS011;45649;53.014;6.600;2023-04-03T11:14:47;1.30;;;1.20;;
59770;SDS011;45649;53.014;6.600;2023-04-03T11:22:43;1.93;;;1.23;;
59770;SDS011;45649;53.014;6.600;2023-04-03T11:27:44;2.23;;;1.30;;
59770;SDS011;45649;53.014;6.600;2023-04-03T11:35:12;2.23;;;1.30;;
59770;SDS011;45649;53.014;6.600;2023-04-03T11:37:40;1.60;;;1.30;;
59770;SDS011;45649;53.014;6.600;2023-04-03T11:42:39;1.93;;;1.40;;
59770;SDS011;45649;53.014;6.600;2023-04-03T11:45:16;3.20;;;1.50;;
59770;SDS011;45649;53.014;6.600;2023-04-03T11:47:44;1.60;;;1.30;;
59770;SDS011;45649;53.014;6.600;2023-04-03T11:53:30;1.63;;;1.20;;
59770;SDS011;45649;53.014;6.600;2023-04-03T12:08:26;1.50;;;1.40;;
59770;SDS011;45649;53.014;6.600;2023-04-03T12:13:40;1.50;;;1.40;;
59770;SDS011;45649;53.014;6.600;2023-04-03T12:16:18;1.63;;;1.40;;
59770;SDS011;45649;53.014;6.600;2023-04-03T12:21:15;1.40;;;1.30;;
59770;SDS011;45649;53.014;6.600;2023-04-03T12:26:22;1.93;;;1.57;;
59770;SDS011;45649;53.014;6.600;2023-04-03T12:28:51;2.47;;;1.60;;
59770;SDS011;45649;53.014;6.600;2023-04-03T12:31:17;2.13;;;1.77;;
59770;SDS011;45649;53.014;6.600;2023-04-03T12:33:56;1.57;;;1.47;;
59770;SDS011;45649;53.014;6.600;2023-04-03T12:47:16;2.63;;;1.43;;
59770;SDS011;45649;53.014;6.600;2023-04-03T12:49:45;3.00;;;1.60;;
59770;SDS011;45649;53.014;6.600;2023-04-03T12:52:19;2.77;;;1.53;;
59770;SDS011;45649;53.014;6.600;2023-04-03T12:54:47;2.80;;;1.60;;
59770;SDS011;45649;53.014;6.600;2023-04-03T12:59:40;1.40;;;1.30;;
59770;SDS011;45649;53.014;6.600;2023-04-03T13:04:43;1.73;;;1.63;;
59770;SDS011;45649;53.014;6.600;2023-04-03T13:07:34;1.60;;;1.40;;
59770;SDS011;45649;53.014;6.600;2023-04-03T13:12:56;2.57;;;1.60;;
59770;SDS011;45649;53.014;6.600;2023-04-03T13:17:48;5.13;;;1.70;;
59770;SDS011;45649;53.014;6.600;2023-04-03T13:20:29;2.30;;;1.50;;
59770;SDS011;45649;53.014;6.600;2023-04-03T13:22:58;2.67;;;1.80;;
59770;SDS011;45649;53.014;6.600;2023-04-03T13:25:26;1.73;;;1.60;;
59770;SDS011;45649;53.014;6.600;2023-04-03T13:27:53;1.90;;;1.67;;
59770;SDS011;45649;53.014;6.600;2023-04-03T13:32:52;2.00;;;1.70;;
59770;SDS011;45649;53.014;6.600;2023-04-03T13:37:59;1.57;;;1.47;;
59770;SDS011;45649;53.014;6.600;2023-04-03T13:40:26;2.23;;;1.90;;
59770;SDS011;45649;53.014;6.600;2023-04-03T13:42:59;1.70;;;1.60;;
59770;SDS011;45649;53.014;6.600;2023-04-03T13:45:26;1.67;;;1.53;;
59770;SDS011;45649;53.014;6.600;2023-04-03T13:50:49;2.07;;;1.57;;
59770;SDS011;45649;53.014;6.600;2023-04-03T13:53:17;1.63;;;1.53;;
59770;SDS011;45649;53.014;6.600;2023-04-03T13:55:54;2.20;;;1.53;;
59770;SDS011;45649;53.014;6.600;2023-04-03T13:58:25;2.40;;;1.50;;
59770;SDS011;45649;53.014;6.600;2023-04-03T14:03:25;2.50;;;1.47;;
59770;SDS011;45649;53.014;6.600;2023-04-03T14:05:52;2.20;;;1.83;;
59770;SDS011;45649;53.014;6.600;2023-04-03T14:08:18;4.50;;;1.80;;
59770;SDS011;45649;53.014;6.600;2023-04-03T14:10:45;1.93;;;1.70;;
59770;SDS011;45649;53.014;6.600;2023-04-03T14:13:16;2.23;;;1.70;;
59770;SDS011;45649;53.014;6.600;2023-04-03T14:15:42;1.43;;;1.33;;
59770;SDS011;45649;53.014;6.600;2023-04-03T14:18:12;1.70;;;1.60;;
59770;SDS011;45649;53.014;6.600;2023-04-03T14:20:39;2.07;;;1.57;;
59770;SDS011;45649;53.014;6.600;2023-04-03T14:23:05;2.40;;;1.50;;
59770;SDS011;45649;53.014;6.600;2023-04-03T14:25:32;2.40;;;1.23;;
59770;SDS011;45649;53.014;6.600;2023-04-03T14:27:59;2.60;;;1.63;;
59770;SDS011;45649;53.014;6.600;2023-04-03T14:30:32;2.40;;;1.33;;
59770;SDS011;45649;53.014;6.600;2023-04-03T14:32:58;2.00;;;1.27;;
59770;SDS011;45649;53.014;6.600;2023-04-03T14:35:25;2.13;;;1.43;;
59770;SDS011;45649;53.014;6.600;2023-04-03T14:37:52;3.30;;;1.80;;
59770;SDS011;45649;53.014;6.600;2023-04-03T14:40:20;2.50;;;1.40;;
59770;SDS011;45649;53.014;6.600;2023-04-03T14:42:46;3.00;;;1.40;;
59770;SDS011;45649;53.014;6.600;2023-04-03T14:45:14;1.83;;;1.50;;
59770;SDS011;45649;53.014;6.600;2023-04-03T14:47:42;1.50;;;1.37;;
59770;SDS011;45649;53.014;6.600;2023-04-03T14:50:11;1.63;;;1.50;;
59770;SDS011;45649;53.014;6.600;2023-04-03T14:52:38;2.13;;;1.40;;
59770;SDS011;45649;53.014;6.600;2023-04-03T14:55:06;1.60;;;1.40;;
59770;SDS011;45649;53.014;6.600;2023-04-03T14:57:32;2.43;;;1.60;;
59770;SDS011;45649;53.014;6.600;2023-04-03T14:59:59;1.40;;;1.30;;
59770;SDS011;45649;53.014;6.600;2023-04-03T15:02:33;2.63;;;1.57;;
59770;SDS011;45649;53.014;6.600;2023-04-03T15:05:00;2.77;;;1.70;;
59770;SDS011;45649;53.014;6.600;2023-04-03T15:07:29;2.73;;;1.50;;
59770;SDS011;45649;53.014;6.600;2023-04-03T15:09:56;1.63;;;1.40;;
59770;SDS011;45649;53.014;6.600;2023-04-03T15:12:22;2.43;;;1.50;;
59770;SDS011;45649;53.014;6.600;2023-04-03T15:14:49;2.87;;;1.50;;
59770;SDS011;45649;53.014;6.600;2023-04-03T15:17:16;1.60;;;1.50;;
59770;SDS011;45649;53.014;6.600;2023-04-03T15:19:43;1.90;;;1.50;;
59770;SDS011;45649;53.014;6.600;2023-04-03T15:22:13;3.00;;;1.60;;
59770;SDS011;45649;53.014;6.600;2023-04-03T15:24:40;3.17;;;1.67;;
59770;SDS011;45649;53.014;6.600;2023-04-03T15:27:06;1.47;;;1.20;;
59770;SDS011;45649;53.014;6.600;2023-04-03T15:29:32;1.43;;;1.20;;
59770;SDS011;45649;53.014;6.600;2023-04-03T15:31:58;1.57;;;1.40;;
59770;SDS011;45649;53.014;6.600;2023-04-03T15:34:24;1.43;;;1.33;;
59770;SDS011;45649;53.014;6.600;2023-04-03T15:36:50;2.43;;;1.40;;
59770;SDS011;45649;53.014;6.600;2023-04-03T15:39:19;1.97;;;1.50;;
59770;SDS011;45649;53.014;6.600;2023-04-03T15:41:46;1.77;;;1.47;;
59770;SDS011;45649;53.014;6.600;2023-04-03T15:44:12;1.90;;;1.60;;
59770;SDS011;45649;53.014;6.600;2023-04-03T15:46:38;2.13;;;1.50;;
59770;SDS011;45649;53.014;6.600;2023-04-03T15:49:06;1.40;;;1.30;;
59770;SDS011;45649;53.014;6.600;2023-04-03T15:51:32;1.60;;;1.50;;
59770;SDS011;45649;53.014;6.600;2023-04-03T15:53:58;1.87;;;1.50;;
59770;SDS011;45649;53.014;6.600;2023-04-03T15:56:24;1.40;;;1.27;;
59770;SDS011;45649;53.014;6.600;2023-04-03T15:58:50;2.63;;;1.60;;
59770;SDS011;45649;53.014;6.600;2023-04-03T16:01:16;1.60;;;1.50;;
59770;SDS011;45649;53.014;6.600;2023-04-03T16:03:43;1.60;;;1.50;;
59770;SDS011;45649;53.014;6.600;2023-04-03T16:06:19;1.80;;;1.63;;
59770;SDS011;45649;53.014;6.600;2023-04-03T16:08:46;3.03;;;1.50;;
59770;SDS011;45649;53.014;6.600;2023-04-03T16:11:13;2.50;;;1.53;;
59770;SDS011;45649;53.014;6.600;2023-04-03T16:13:39;2.20;;;1.60;;
59770;SDS011;45649;53.014;6.600;2023-04-03T16:16:05;1.97;;;1.60;;
59770;SDS011;45649;53.014;6.600;2023-04-03T16:18:32;2.77;;;1.60;;
59770;SDS011;45649;53.014;6.600;2023-04-03T16:21:00;1.53;;;1.43;;
59770;SDS011;45649;53.014;6.600;2023-04-03T16:23:26;2.53;;;1.50;;
59770;SDS011;45649;53.014;6.600;2023-04-03T16:25:52;1.83;;;1.43;;
59770;SDS011;45649;53.014;6.600;2023-04-03T16:28:18;2.00;;;1.50;;
59770;SDS011;45649;53.014;6.600;2023-04-03T16:30:45;2.87;;;1.30;;
59770;SDS011;45649;53.014;6.600;2023-04-03T16:33:11;1.98;;;1.48;;
59770;SDS011;45649;53.014;6.600;2023-04-03T16:35:38;1.20;;;1.10;;
59770;SDS011;45649;53.014;6.600;2023-04-03T16:38:07;1.40;;;1.30;;
59770;SDS011;45649;53.014;6.600;2023-04-03T16:40:33;1.40;;;1.30;;
59770;SDS011;45649;53.014;6.600;2023-04-03T16:43:00;1.70;;;1.20;;
59770;SDS011;45649;53.014;6.600;2023-04-03T16:45:26;1.60;;;1.50;;
59770;SDS011;45649;53.014;6.600;2023-04-03T16:47:52;1.60;;;1.33;;
59770;SDS011;45649;53.014;6.600;2023-04-03T16:50:18;1.67;;;1.23;;